sensor_id;sensor_type;location;lat;lon;timestamp;pressure;altitude;pressure_sealevel;temperature;humidity
31225;BME280;17847;31.524;74.366;2024-03-22T00:00:20;98436.09;;;20.38;100.00
31225;BME280;17847;31.524;74.366;2024-03-22T00:02:48;98447.09;;;20.36;100.00
31225;BME280;17847;31.524;74.366;2024-03-22T00:05:15;98442.81;;;20.35;100.00
31225;BME280;17847;31.524;74.366;2024-03-22T00:07:43;98446.56;;;20.34;100.00
31225;BME280;17847;31.524;74.366;2024-03-22T00:10:11;98440.53;;;20.17;100.00
31225;BME280;17847;31.524;74.366;2024-03-22T00:12:40;98452.88;;;20.18;100.00
31225;BME280;17847;31.524;74.366;2024-03-22T00:15:08;98458.53;;;20.16;100.00
31225;BME280;17847;31.524;74.366;2024-03-22T00:17:36;98461.47;;;20.15;100.00
31225;BME280;17847;31.524;74.366;2024-03-22T00:20:04;98459.50;;;20.00;100.00
31225;BME280;17847;31.524;74.366;2024-03-22T00:22:32;98464.09;;;20.00;100.00
31225;BME280;17847;31.524;74.366;2024-03-22T00:25:00;98472.16;;;20.05;100.00
31225;BME280;17847;31.524;74.366;2024-03-22T00:27:28;98476.44;;;20.01;100.00
31225;BME280;17847;31.524;74.366;2024-03-22T00:29:56;98489.34;;;19.99;100.00
31225;BME280;17847;31.524;74.366;2024-03-22T00:32:23;98489.59;;;19.97;100.00
31225;BME280;17847;31.524;74.366;2024-03-22T00:34:51;98498.75;;;20.01;100.00
31225;BME280;17847;31.524;74.366;2024-03-22T00:37:19;98497.69;;;20.02;100.00
31225;BME280;17847;31.524;74.366;2024-03-22T00:39:47;98499.34;;;20.03;100.00
31225;BME280;17847;31.524;74.366;2024-03-22T00:42:15;98500.41;;;20.02;100.00
31225;BME280;17847;31.524;74.366;2024-03-22T00:44:42;98509.56;;;20.06;100.00
31225;BME280;17847;31.524;74.366;2024-03-22T00:47:10;98516.28;;;20.04;100.00
31225;BME280;17847;31.524;74.366;2024-03-22T00:49:38;98522.22;;;20.11;100.00
31225;BME280;17847;31.524;74.366;2024-03-22T00:52:05;98527.56;;;20.06;100.00
31225;BME280;17847;31.524;74.366;2024-03-22T00:54:33;98513.78;;;19.97;100.00
31225;BME280;17847;31.524;74.366;2024-03-22T00:57:01;98513.91;;;20.12;100.00
31225;BME280;17847;31.524;74.366;2024-03-22T00:59:29;98520.97;;;20.24;100.00
31225;BME280;17847;31.524;74.366;2024-03-22T01:01:57;98534.03;;;20.10;100.00
31225;BME280;17847;31.524;74.366;2024-03-22T01:04:25;98541.63;;;20.13;100.00
31225;BME280;17847;31.524;74.366;2024-03-22T01:06:52;98540.97;;;20.01;100.00
31225;BME280;17847;31.524;74.366;2024-03-22T01:09:21;98530.19;;;19.96;100.00
31225;BME280;17847;31.524;74.366;2024-03-22T01:11:48;98533.44;;;19.98;100.00
31225;BME280;17847;31.524;74.366;2024-03-22T01:14:16;98533.66;;;19.96;100.00
31225;BME280;17847;31.524;74.366;2024-03-22T01:16:43;98523.53;;;19.71;100.00
31225;BME280;17847;31.524;74.366;2024-03-22T01:19:11;98517.09;;;19.72;100.00
31225;BME280;17847;31.524;74.366;2024-03-22T01:21:39;98520.78;;;19.66;100.00
31225;BME280;17847;31.524;74.366;2024-03-22T01:24:06;98517.88;;;19.68;100.00
31225;BME280;17847;31.524;74.366;2024-03-22T01:26:34;98512.25;;;19.74;100.00
31225;BME280;17847;31.524;74.366;2024-03-22T01:29:02;98526.84;;;19.84;100.00
31225;BME280;17847;31.524;74.366;2024-03-22T01:31:30;98526.56;;;19.80;100.00
31225;BME280;17847;31.524;74.366;2024-03-22T01:33:58;98527.13;;;19.82;100.00
31225;BME280;17847;31.524;74.366;2024-03-22T01:36:26;98528.47;;;19.85;100.00
31225;BME280;17847;31.524;74.366;2024-03-22T01:38:53;98531.75;;;19.92;100.00
31225;BME280;17847;31.524;74.366;2024-03-22T01:41:22;98529.84;;;19.87;100.00
31225;BME280;17847;31.524;74.366;2024-03-22T01:43:50;98543.28;;;19.87;100.00
31225;BME280;17847;31.524;74.366;2024-03-22T01:46:18;98539.81;;;19.92;100.00
31225;BME280;17847;31.524;74.366;2024-03-22T01:48:46;98542.50;;;19.92;100.00
31225;BME280;17847;31.524;74.366;2024-03-22T01:51:14;98545.28;;;20.02;100.00
31225;BME280;17847;31.524;74.366;2024-03-22T01:53:42;98534.00;;;20.00;100.00
31225;BME280;17847;31.524;74.366;2024-03-22T01:56:10;98539.44;;;20.10;100.00
31225;BME280;17847;31.524;74.366;2024-03-22T01:58:39;98561.03;;;20.20;100.00
31225;BME280;17847;31.524;74.366;2024-03-22T02:01:07;98550.91;;;20.32;100.00
31225;BME280;17847;31.524;74.366;2024-03-22T02:03:36;98567.09;;;20.37;100.00
31225;BME280;17847;31.524;74.366;2024-03-22T02:06:04;98571.41;;;20.38;100.00
31225;BME280;17847;31.524;74.366;2024-03-22T02:08:32;98587.59;;;20.43;100.00
31225;BME280;17847;31.524;74.366;2024-03-22T02:10:59;98583.06;;;20.54;100.00
31225;BME280;17847;31.524;74.366;2024-03-22T02:13:27;98593.22;;;20.42;100.00
31225;BME280;17847;31.524;74.366;2024-03-22T02:15:54;98595.88;;;20.37;100.00
31225;BME280;17847;31.524;74.366;2024-03-22T02:18:22;98601.00;;;20.38;100.00
31225;BME280;17847;31.524;74.366;2024-03-22T02:20:50;98608.09;;;20.54;100.00
31225;BME280;17847;31.524;74.366;2024-03-22T02:23:26;98596.84;;;20.62;100.00
31225;BME280;17847;31.524;74.366;2024-03-22T02:25:54;98592.06;;;20.70;100.00
31225;BME280;17847;31.524;74.366;2024-03-22T02:28:22;98601.59;;;20.92;100.00
31225;BME280;17847;31.524;74.366;2024-03-22T02:30:49;98603.75;;;20.90;100.00
31225;BME280;17847;31.524;74.366;2024-03-22T02:33:17;98602.94;;;20.95;100.00
31225;BME280;17847;31.524;74.366;2024-03-22T02:35:48;98605.41;;;20.96;100.00
31225;BME280;17847;31.524;74.366;2024-03-22T02:38:17;98604.59;;;21.01;100.00
31225;BME280;17847;31.524;74.366;2024-03-22T02:40:45;98610.00;;;21.01;100.00
31225;BME280;17847;31.524;74.366;2024-03-22T02:43:13;98618.09;;;21.06;100.00
31225;BME280;17847;31.524;74.366;2024-03-22T02:45:41;98630.06;;;21.30;100.00
31225;BME280;17847;31.524;74.366;2024-03-22T02:48:09;98636.56;;;21.34;100.00
31225;BME280;17847;31.524;74.366;2024-03-22T02:50:37;98643.88;;;21.44;100.00
31225;BME280;17847;31.524;74.366;2024-03-22T02:53:21;98654.72;;;21.59;100.00
31225;BME280;17847;31.524;74.366;2024-03-22T02:55:49;98652.34;;;21.83;100.00
31225;BME280;17847;31.524;74.366;2024-03-22T02:58:19;98669.59;;;21.87;100.00
31225;BME280;17847;31.524;74.366;2024-03-22T03:00:48;98671.94;;;21.53;100.00
31225;BME280;17847;31.524;74.366;2024-03-22T03:03:15;98667.94;;;21.66;100.00
31225;BME280;17847;31.524;74.366;2024-03-22T03:05:43;98676.97;;;21.34;100.00
31225;BME280;17847;31.524;74.366;2024-03-22T03:08:11;98690.00;;;21.52;100.00
31225;BME280;17847;31.524;74.366;2024-03-22T03:10:39;98690.88;;;21.78;100.00
31225;BME280;17847;31.524;74.366;2024-03-22T03:13:06;98703.09;;;21.96;100.00
31225;BME280;17847;31.524;74.366;2024-03-22T03:15:34;98719.56;;;21.94;100.00
31225;BME280;17847;31.524;74.366;2024-03-22T03:18:02;98743.38;;;22.33;100.00
31225;BME280;17847;31.524;74.366;2024-03-22T03:20:33;98785.28;;;22.61;100.00
31225;BME280;17847;31.524;74.366;2024-03-22T03:23:00;98829.53;;;22.55;100.00
31225;BME280;17847;31.524;74.366;2024-03-22T03:25:28;98866.72;;;22.37;100.00
31225;BME280;17847;31.524;74.366;2024-03-22T03:27:57;98895.84;;;22.30;100.00
31225;BME280;17847;31.524;74.366;2024-03-22T03:30:24;98906.00;;;22.13;100.00
31225;BME280;17847;31.524;74.366;2024-03-22T03:32:53;98888.03;;;21.87;100.00
31225;BME280;17847;31.524;74.366;2024-03-22T03:35:20;98891.16;;;21.69;100.00
31225;BME280;17847;31.524;74.366;2024-03-22T03:37:48;98880.75;;;21.45;100.00
31225;BME280;17847;31.524;74.366;2024-03-22T03:40:16;98872.16;;;21.48;100.00
31225;BME280;17847;31.524;74.366;2024-03-22T03:42:43;98870.47;;;21.42;100.00
31225;BME280;17847;31.524;74.366;2024-03-22T03:45:11;98858.50;;;21.23;100.00
31225;BME280;17847;31.524;74.366;2024-03-22T03:47:39;98852.53;;;21.21;100.00
31225;BME280;17847;31.524;74.366;2024-03-22T03:50:08;98854.13;;;21.17;100.00
31225;BME280;17847;31.524;74.366;2024-03-22T03:52:36;98860.78;;;21.10;100.00
31225;BME280;17847;31.524;74.366;2024-03-22T03:55:04;98864.25;;;21.05;100.00
31225;BME280;17847;31.524;74.366;2024-03-22T03:57:32;98847.97;;;20.95;100.00
31225;BME280;17847;31.524;74.366;2024-03-22T03:59:59;98849.63;;;20.96;100.00
31225;BME280;17847;31.524;74.366;2024-03-22T04:02:27;98838.78;;;20.91;100.00
31225;BME280;17847;31.524;74.366;2024-03-22T04:04:55;98825.56;;;20.84;100.00
31225;BME280;17847;31.524;74.366;2024-03-22T04:07:23;98781.75;;;20.67;100.00
31225;BME280;17847;31.524;74.366;2024-03-22T04:09:50;98716.38;;;20.67;100.00
31225;BME280;17847;31.524;74.366;2024-03-22T04:12:18;98662.41;;;20.83;100.00
31225;BME280;17847;31.524;74.366;2024-03-22T04:14:46;98657.72;;;20.69;100.00
31225;BME280;17847;31.524;74.366;2024-03-22T04:17:14;98670.59;;;20.61;100.00
31225;BME280;17847;31.524;74.366;2024-03-22T04:19:42;98694.13;;;20.44;100.00
31225;BME280;17847;31.524;74.366;2024-03-22T04:22:09;98700.56;;;20.75;100.00
31225;BME280;17847;31.524;74.366;2024-03-22T04:24:37;98678.47;;;20.73;100.00
31225;BME280;17847;31.524;74.366;2024-03-22T04:27:05;98653.72;;;20.76;100.00
31225;BME280;17847;31.524;74.366;2024-03-22T04:29:34;98648.28;;;20.66;100.00
31225;BME280;17847;31.524;74.366;2024-03-22T04:32:02;98641.13;;;20.82;100.00
31225;BME280;17847;31.524;74.366;2024-03-22T04:34:30;98638.75;;;20.90;100.00
31225;BME280;17847;31.524;74.366;2024-03-22T04:36:58;98629.63;;;20.96;100.00
31225;BME280;17847;31.524;74.366;2024-03-22T04:39:26;98634.31;;;21.16;100.00
31225;BME280;17847;31.524;74.366;2024-03-22T04:41:53;98609.69;;;21.55;100.00
31225;BME280;17847;31.524;74.366;2024-03-22T04:44:21;98600.53;;;21.50;100.00
31225;BME280;17847;31.524;74.366;2024-03-22T04:46:49;98600.31;;;21.87;100.00
31225;BME280;17847;31.524;74.366;2024-03-22T04:49:16;98605.75;;;22.03;100.00
31225;BME280;17847;31.524;74.366;2024-03-22T04:51:44;98607.13;;;22.25;100.00
31225;BME280;17847;31.524;74.366;2024-03-22T04:54:12;98609.53;;;22.12;100.00
31225;BME280;17847;31.524;74.366;2024-03-22T04:56:40;98609.78;;;22.56;100.00
31225;BME280;17847;31.524;74.366;2024-03-22T04:59:08;98615.66;;;22.93;100.00
31225;BME280;17847;31.524;74.366;2024-03-22T05:01:35;98625.06;;;23.80;100.00
31225;BME280;17847;31.524;74.366;2024-03-22T05:04:03;98623.03;;;23.52;100.00
31225;BME280;17847;31.524;74.366;2024-03-22T05:06:31;98635.72;;;24.00;100.00
31225;BME280;17847;31.524;74.366;2024-03-22T05:08:59;98635.56;;;24.26;100.00
31225;BME280;17847;31.524;74.366;2024-03-22T05:11:26;98647.41;;;24.35;100.00
31225;BME280;17847;31.524;74.366;2024-03-22T05:13:54;98642.41;;;23.69;100.00
31225;BME280;17847;31.524;74.366;2024-03-22T05:16:22;98636.78;;;23.60;100.00
31225;BME280;17847;31.524;74.366;2024-03-22T05:18:50;98627.56;;;24.44;100.00
31225;BME280;17847;31.524;74.366;2024-03-22T05:21:18;98634.44;;;24.94;100.00
31225;BME280;17847;31.524;74.366;2024-03-22T05:23:46;98628.91;;;25.04;100.00
31225;BME280;17847;31.524;74.366;2024-03-22T05:26:14;98613.81;;;25.22;100.00
31225;BME280;17847;31.524;74.366;2024-03-22T05:28:41;98611.84;;;25.46;100.00
31225;BME280;17847;31.524;74.366;2024-03-22T05:31:09;98615.94;;;25.68;100.00
31225;BME280;17847;31.524;74.366;2024-03-22T05:33:37;98624.91;;;25.44;100.00
31225;BME280;17847;31.524;74.366;2024-03-22T05:36:05;98623.72;;;25.93;100.00
31225;BME280;17847;31.524;74.366;2024-03-22T05:38:33;98625.03;;;25.34;100.00
31225;BME280;17847;31.524;74.366;2024-03-22T05:41:04;98615.66;;;26.07;100.00
31225;BME280;17847;31.524;74.366;2024-03-22T05:43:32;98611.66;;;26.36;100.00
31225;BME280;17847;31.524;74.366;2024-03-22T05:45:59;98616.84;;;26.65;100.00
31225;BME280;17847;31.524;74.366;2024-03-22T05:48:27;98616.53;;;26.53;100.00
31225;BME280;17847;31.524;74.366;2024-03-22T05:50:56;98600.03;;;26.50;100.00
31225;BME280;17847;31.524;74.366;2024-03-22T05:53:23;98607.16;;;26.46;100.00
31225;BME280;17847;31.524;74.366;2024-03-22T05:55:51;98604.69;;;26.76;100.00
31225;BME280;17847;31.524;74.366;2024-03-22T05:58:19;98603.53;;;27.23;98.10
31225;BME280;17847;31.524;74.366;2024-03-22T06:00:47;98607.84;;;27.11;100.00
31225;BME280;17847;31.524;74.366;2024-03-22T06:03:15;98604.03;;;27.39;99.97
31225;BME280;17847;31.524;74.366;2024-03-22T06:05:43;98616.03;;;27.52;98.27
31225;BME280;17847;31.524;74.366;2024-03-22T06:08:10;98616.03;;;27.52;97.29
31225;BME280;17847;31.524;74.366;2024-03-22T06:10:38;98612.28;;;27.61;97.49
31225;BME280;17847;31.524;74.366;2024-03-22T06:13:06;98604.13;;;27.61;97.45
31225;BME280;17847;31.524;74.366;2024-03-22T06:15:33;98616.91;;;27.61;98.44
31225;BME280;17847;31.524;74.366;2024-03-22T06:18:01;98612.63;;;27.82;92.98
31225;BME280;17847;31.524;74.366;2024-03-22T06:20:29;98607.75;;;27.57;95.68
31225;BME280;17847;31.524;74.366;2024-03-22T06:22:57;98603.94;;;28.38;93.23
31225;BME280;17847;31.524;74.366;2024-03-22T06:25:25;98595.25;;;27.92;92.86
31225;BME280;17847;31.524;74.366;2024-03-22T06:27:52;98598.97;;;27.96;92.28
31225;BME280;17847;31.524;74.366;2024-03-22T06:30:20;98611.75;;;27.73;88.81
31225;BME280;17847;31.524;74.366;2024-03-22T06:32:49;98610.63;;;27.74;91.70
31225;BME280;17847;31.524;74.366;2024-03-22T06:35:17;98606.16;;;27.92;93.80
31225;BME280;17847;31.524;74.366;2024-03-22T06:37:44;98602.31;;;28.15;87.19
31225;BME280;17847;31.524;74.366;2024-03-22T06:40:12;98602.75;;;28.08;87.06
31225;BME280;17847;31.524;74.366;2024-03-22T06:42:40;98614.28;;;27.69;87.01
31225;BME280;17847;31.524;74.366;2024-03-22T06:45:08;98610.50;;;28.37;85.65
31225;BME280;17847;31.524;74.366;2024-03-22T06:47:36;98603.94;;;28.16;85.52
31225;BME280;17847;31.524;74.366;2024-03-22T06:50:04;98596.44;;;28.44;85.86
31225;BME280;17847;31.524;74.366;2024-03-22T06:52:31;98592.25;;;28.69;81.85
31225;BME280;17847;31.524;74.366;2024-03-22T06:54:59;98587.69;;;28.55;80.70
31225;BME280;17847;31.524;74.366;2024-03-22T06:57:27;98583.97;;;28.74;79.99
31225;BME280;17847;31.524;74.366;2024-03-22T06:59:55;98578.56;;;28.29;80.18
31225;BME280;17847;31.524;74.366;2024-03-22T07:02:22;98581.22;;;28.43;83.22
31225;BME280;17847;31.524;74.366;2024-03-22T07:04:50;98568.16;;;28.62;81.73
31225;BME280;17847;31.524;74.366;2024-03-22T07:07:20;98575.34;;;28.80;82.98
31225;BME280;17847;31.524;74.366;2024-03-22T07:09:47;98570.59;;;28.41;81.90
31225;BME280;17847;31.524;74.366;2024-03-22T07:12:15;98564.81;;;28.34;82.39
31225;BME280;17847;31.524;74.366;2024-03-22T07:14:43;98556.25;;;28.49;82.73
31225;BME280;17847;31.524;74.366;2024-03-22T07:17:11;98555.09;;;28.50;81.79
31225;BME280;17847;31.524;74.366;2024-03-22T07:19:38;98547.66;;;28.65;81.52
31225;BME280;17847;31.524;74.366;2024-03-22T07:22:06;98535.91;;;28.86;79.61
31225;BME280;17847;31.524;74.366;2024-03-22T07:24:34;98533.66;;;28.88;79.05
31225;BME280;17847;31.524;74.366;2024-03-22T07:27:02;98535.00;;;29.08;79.76
31225;BME280;17847;31.524;74.366;2024-03-22T07:29:30;98525.72;;;28.70;74.59
31225;BME280;17847;31.524;74.366;2024-03-22T07:31:58;98524.44;;;28.67;77.79
31225;BME280;17847;31.524;74.366;2024-03-22T07:34:25;98524.66;;;28.48;76.85
31225;BME280;17847;31.524;74.366;2024-03-22T07:36:53;98525.03;;;29.03;78.51
31225;BME280;17847;31.524;74.366;2024-03-22T07:39:21;98507.34;;;28.84;77.03
31225;BME280;17847;31.524;74.366;2024-03-22T07:41:50;98507.75;;;28.69;80.75
31225;BME280;17847;31.524;74.366;2024-03-22T07:44:18;98500.34;;;28.61;79.95
31225;BME280;17847;31.524;74.366;2024-03-22T07:46:46;98495.81;;;28.47;77.18
31225;BME280;17847;31.524;74.366;2024-03-22T07:49:14;98499.81;;;28.81;72.87
31225;BME280;17847;31.524;74.366;2024-03-22T07:51:42;98495.00;;;28.95;73.39
31225;BME280;17847;31.524;74.366;2024-03-22T07:54:10;98494.38;;;28.81;71.75
31225;BME280;17847;31.524;74.366;2024-03-22T07:56:37;98488.72;;;28.77;74.52
31225;BME280;17847;31.524;74.366;2024-03-22T07:59:06;98486.56;;;28.66;70.08
31225;BME280;17847;31.524;74.366;2024-03-22T08:01:33;98476.59;;;28.52;68.44
31225;BME280;17847;31.524;74.366;2024-03-22T08:04:01;98468.69;;;28.42;65.15
31225;BME280;17847;31.524;74.366;2024-03-22T08:06:29;98467.13;;;28.50;68.30
31225;BME280;17847;31.524;74.366;2024-03-22T08:08:56;98474.31;;;28.85;64.86
31225;BME280;17847;31.524;74.366;2024-03-22T08:11:26;98467.13;;;28.89;73.42
31225;BME280;17847;31.524;74.366;2024-03-22T08:13:54;98459.63;;;28.64;71.02
31225;BME280;17847;31.524;74.366;2024-03-22T08:16:29;98453.53;;;28.58;71.12
31225;BME280;17847;31.524;74.366;2024-03-22T08:18:58;98441.34;;;28.65;72.67
31225;BME280;17847;31.524;74.366;2024-03-22T08:21:26;98438.25;;;28.40;62.72
31225;BME280;17847;31.524;74.366;2024-03-22T08:23:56;98441.69;;;28.63;65.88
31225;BME280;17847;31.524;74.366;2024-03-22T08:26:24;98429.00;;;28.58;67.44
31225;BME280;17847;31.524;74.366;2024-03-22T08:28:52;98437.69;;;28.69;67.11
31225;BME280;17847;31.524;74.366;2024-03-22T08:31:19;98426.72;;;28.52;66.92
31225;BME280;17847;31.524;74.366;2024-03-22T08:33:52;98431.31;;;28.34;66.87
31225;BME280;17847;31.524;74.366;2024-03-22T08:36:20;98421.72;;;28.37;66.91
31225;BME280;17847;31.524;74.366;2024-03-22T08:38:47;98421.22;;;28.35;67.19
31225;BME280;17847;31.524;74.366;2024-03-22T08:41:15;98415.75;;;28.26;68.82
31225;BME280;17847;31.524;74.366;2024-03-22T08:43:43;98408.78;;;28.51;69.03
31225;BME280;17847;31.524;74.366;2024-03-22T08:46:11;98403.69;;;28.58;71.53
31225;BME280;17847;31.524;74.366;2024-03-22T08:48:39;98406.06;;;28.59;68.86
31225;BME280;17847;31.524;74.366;2024-03-22T08:51:07;98399.44;;;28.35;66.25
31225;BME280;17847;31.524;74.366;2024-03-22T08:53:34;98399.47;;;28.52;66.08
31225;BME280;17847;31.524;74.366;2024-03-22T08:56:02;98392.75;;;28.49;68.62
31225;BME280;17847;31.524;74.366;2024-03-22T08:58:30;98383.25;;;28.38;68.33
31225;BME280;17847;31.524;74.366;2024-03-22T09:00:58;98375.44;;;28.54;72.89
31225;BME280;17847;31.524;74.366;2024-03-22T09:03:26;98369.31;;;28.40;73.38
31225;BME280;17847;31.524;74.366;2024-03-22T09:05:54;98371.47;;;28.12;73.03
31225;BME280;17847;31.524;74.366;2024-03-22T09:08:21;98359.81;;;28.20;75.92
31225;BME280;17847;31.524;74.366;2024-03-22T09:10:49;98361.91;;;28.23;75.76
31225;BME280;17847;31.524;74.366;2024-03-22T09:13:16;98354.22;;;28.34;76.26
31225;BME280;17847;31.524;74.366;2024-03-22T09:15:45;98367.25;;;28.45;75.88
31225;BME280;17847;31.524;74.366;2024-03-22T09:18:12;98356.69;;;28.52;75.03
31225;BME280;17847;31.524;74.366;2024-03-22T09:20:40;98364.22;;;28.55;72.20
31225;BME280;17847;31.524;74.366;2024-03-22T09:23:08;98353.97;;;28.52;66.88
31225;BME280;17847;31.524;74.366;2024-03-22T09:25:36;98360.19;;;28.44;61.38
31225;BME280;17847;31.524;74.366;2024-03-22T09:28:03;98364.19;;;28.47;63.47
31225;BME280;17847;31.524;74.366;2024-03-22T09:30:31;98350.25;;;28.40;65.81
31225;BME280;17847;31.524;74.366;2024-03-22T09:32:59;98356.50;;;28.32;67.43
31225;BME280;17847;31.524;74.366;2024-03-22T09:35:27;98347.66;;;28.26;65.08
31225;BME280;17847;31.524;74.366;2024-03-22T09:37:55;98339.66;;;28.38;64.81
31225;BME280;17847;31.524;74.366;2024-03-22T09:40:24;98349.78;;;28.55;65.75
31225;BME280;17847;31.524;74.366;2024-03-22T09:42:53;98336.72;;;28.18;60.28
31225;BME280;17847;31.524;74.366;2024-03-22T09:45:21;98338.81;;;28.21;57.67
31225;BME280;17847;31.524;74.366;2024-03-22T09:47:50;98333.53;;;28.24;54.96
31225;BME280;17847;31.524;74.366;2024-03-22T09:50:22;98334.69;;;28.32;58.88
31225;BME280;17847;31.524;74.366;2024-03-22T09:52:52;98327.81;;;28.34;57.78
31225;BME280;17847;31.524;74.366;2024-03-22T09:55:23;98324.59;;;28.32;58.25
31225;BME280;17847;31.524;74.366;2024-03-22T09:57:52;98320.25;;;28.23;60.87
31225;BME280;17847;31.524;74.366;2024-03-22T10:00:21;98319.59;;;28.26;62.63
31225;BME280;17847;31.524;74.366;2024-03-22T10:02:53;98322.63;;;28.24;55.19
31225;BME280;17847;31.524;74.366;2024-03-22T10:05:21;98326.03;;;28.30;51.92
31225;BME280;17847;31.524;74.366;2024-03-22T10:07:49;98309.34;;;28.23;52.24
31225;BME280;17847;31.524;74.366;2024-03-22T10:10:17;98311.28;;;28.31;51.07
31225;BME280;17847;31.524;74.366;2024-03-22T10:12:45;98298.31;;;28.36;54.67
31225;BME280;17847;31.524;74.366;2024-03-22T10:15:18;98295.59;;;28.28;62.66
31225;BME280;17847;31.524;74.366;2024-03-22T10:17:46;98288.84;;;28.34;64.56
31225;BME280;17847;31.524;74.366;2024-03-22T10:20:14;98290.31;;;28.31;63.36
31225;BME280;17847;31.524;74.366;2024-03-22T10:22:43;98276.84;;;28.26;65.30
31225;BME280;17847;31.524;74.366;2024-03-22T10:25:11;98275.56;;;28.32;68.05
31225;BME280;17847;31.524;74.366;2024-03-22T10:27:39;98273.31;;;28.26;65.67
31225;BME280;17847;31.524;74.366;2024-03-22T10:30:09;98270.41;;;28.22;63.71
31225;BME280;17847;31.524;74.366;2024-03-22T10:32:36;98272.50;;;28.17;63.90
31225;BME280;17847;31.524;74.366;2024-03-22T10:35:06;98269.09;;;28.11;63.73
31225;BME280;17847;31.524;74.366;2024-03-22T10:37:34;98267.69;;;28.13;64.24
31225;BME280;17847;31.524;74.366;2024-03-22T10:40:02;98265.72;;;28.05;63.75
31225;BME280;17847;31.524;74.366;2024-03-22T10:42:40;98258.66;;;28.04;64.33
31225;BME280;17847;31.524;74.366;2024-03-22T10:45:12;98248.56;;;28.05;64.74
31225;BME280;17847;31.524;74.366;2024-03-22T10:47:40;98254.06;;;28.13;65.46
31225;BME280;17847;31.524;74.366;2024-03-22T10:50:10;98259.00;;;28.11;65.23
31225;BME280;17847;31.524;74.366;2024-03-22T10:52:46;98249.84;;;27.99;63.26
31225;BME280;17847;31.524;74.366;2024-03-22T10:55:35;98251.28;;;27.96;63.35
31225;BME280;17847;31.524;74.366;2024-03-22T10:58:05;98252.88;;;27.97;63.86
31225;BME280;17847;31.524;74.366;2024-03-22T11:00:34;98244.22;;;27.95;63.85
31225;BME280;17847;31.524;74.366;2024-03-22T11:03:07;98243.59;;;27.98;64.80
31225;BME280;17847;31.524;74.366;2024-03-22T11:05:45;98240.69;;;27.95;63.27
31225;BME280;17847;31.524;74.366;2024-03-22T11:08:13;98238.78;;;27.95;63.20
31225;BME280;17847;31.524;74.366;2024-03-22T11:10:50;98245.47;;;27.89;62.10
31225;BME280;17847;31.524;74.366;2024-03-22T11:13:18;98239.72;;;27.82;63.75
31225;BME280;17847;31.524;74.366;2024-03-22T11:15:51;98247.22;;;27.77;64.58
31225;BME280;17847;31.524;74.366;2024-03-22T11:18:20;98247.22;;;27.77;65.35
31225;BME280;17847;31.524;74.366;2024-03-22T11:20:47;98244.78;;;27.75;64.27
31225;BME280;17847;31.524;74.366;2024-03-22T11:23:15;98240.78;;;27.73;65.42
31225;BME280;17847;31.524;74.366;2024-03-22T11:25:43;98233.56;;;27.68;66.29
31225;BME280;17847;31.524;74.366;2024-03-22T11:28:11;98237.56;;;27.70;67.03
31225;BME280;17847;31.524;74.366;2024-03-22T11:30:39;98235.50;;;27.67;66.09
31225;BME280;17847;31.524;74.366;2024-03-22T11:33:07;98235.19;;;27.69;67.03
31225;BME280;17847;31.524;74.366;2024-03-22T11:35:35;98236.44;;;27.63;66.28
31225;BME280;17847;31.524;74.366;2024-03-22T11:38:02;98230.66;;;27.56;67.46
31225;BME280;17847;31.524;74.366;2024-03-22T11:40:31;98232.56;;;27.55;67.53
31225;BME280;17847;31.524;74.366;2024-03-22T11:43:01;98238.16;;;27.50;66.81
31225;BME280;17847;31.524;74.366;2024-03-22T11:45:30;98233.81;;;27.49;67.17
31225;BME280;17847;31.524;74.366;2024-03-22T11:48:05;98230.09;;;27.45;67.17
31225;BME280;17847;31.524;74.366;2024-03-22T11:50:34;98228.31;;;27.41;67.07
31225;BME280;17847;31.524;74.366;2024-03-22T11:53:01;98224.63;;;27.37;69.71
31225;BME280;17847;31.524;74.366;2024-03-22T11:55:31;98227.81;;;27.30;68.73
31225;BME280;17847;31.524;74.366;2024-03-22T11:57:58;98229.59;;;27.35;69.98
31225;BME280;17847;31.524;74.366;2024-03-22T12:00:28;98226.06;;;27.34;71.10
31225;BME280;17847;31.524;74.366;2024-03-22T12:02:55;98221.56;;;27.30;72.29
31225;BME280;17847;31.524;74.366;2024-03-22T12:05:23;98219.16;;;27.37;72.96
31225;BME280;17847;31.524;74.366;2024-03-22T12:07:53;98223.16;;;27.31;73.40
31225;BME280;17847;31.524;74.366;2024-03-22T12:10:21;98222.16;;;27.26;73.86
31225;BME280;17847;31.524;74.366;2024-03-22T12:12:48;98223.09;;;27.22;73.82
31225;BME280;17847;31.524;74.366;2024-03-22T12:15:16;98223.25;;;27.17;74.37
31225;BME280;17847;31.524;74.366;2024-03-22T12:17:44;98210.91;;;27.11;74.77
31225;BME280;17847;31.524;74.366;2024-03-22T12:20:12;98209.28;;;27.10;75.72
31225;BME280;17847;31.524;74.366;2024-03-22T12:22:42;98211.31;;;27.04;76.12
31225;BME280;17847;31.524;74.366;2024-03-22T12:25:09;98209.88;;;26.98;76.86
31225;BME280;17847;31.524;74.366;2024-03-22T12:27:38;98206.97;;;26.95;76.86
31225;BME280;17847;31.524;74.366;2024-03-22T12:30:06;98207.69;;;26.87;77.16
31225;BME280;17847;31.524;74.366;2024-03-22T12:32:35;98203.50;;;26.80;76.91
31225;BME280;17847;31.524;74.366;2024-03-22T12:35:03;98206.63;;;26.74;77.09
31225;BME280;17847;31.524;74.366;2024-03-22T12:37:31;98209.47;;;26.69;78.73
31225;BME280;17847;31.524;74.366;2024-03-22T12:39:59;98208.88;;;26.50;80.59
31225;BME280;17847;31.524;74.366;2024-03-22T12:42:27;98217.75;;;26.42;80.05
31225;BME280;17847;31.524;74.366;2024-03-22T12:44:55;98216.88;;;26.32;79.58
31225;BME280;17847;31.524;74.366;2024-03-22T12:47:26;98224.03;;;26.28;79.13
31225;BME280;17847;31.524;74.366;2024-03-22T12:49:54;98225.25;;;26.22;81.80